Date,TemperatureHighF,TemperatureAvgF,TemperatureLowF,DewpointHighF,DewpointAvgF,DewpointLowF,HumidityHigh,HumidityAvg,HumidityLow,PressureMaxIn,PressureMinIn,WindSpeedMaxMPH,WindSpeedAvgMPH,GustSpeedMaxMPH,PrecipitationSumIn
2013-1-1,32.0,28.3,28.1,24.2,24.0,23.6,84,83,71,30.04,29.79,0,0,0,0.00
2013-1-2,28.5,28.3,28.1,24.2,24.0,23.6,84,83,83,30.04,30.02,0,0,0,0.00
2013-1-3,28.5,28.3,28.1,24.2,24.0,23.6,84,83,83,30.04,30.02,0,0,0,0.00
2013-1-4,37.0,30.8,24.7,24.4,23.0,19.1,84,73,58,30.04,29.85,0,0,0,0.00
2013-1-5,39.8,31.8,23.2,24.3,21.2,17.5,81,65,46,30.29,29.89,0,0,0,0.00
2013-1-6,41.2,31.6,23.3,29.4,25.4,18.2,91,78,60,30.26,29.97,22,2,22,0.00
2013-1-7,38.3,31.3,21.1,28.9,20.2,15.2,82,64,46,30.42,29.99,16,1,16,0.00
2013-1-8,29.0,27.9,23.4,18.3,18.0,16.6,76,66,62,30.40,30.39,5,0,5,0.00
2013-1-9,43.2,35.3,26.8,35.8,26.2,17.6,94,70,55,30.41,30.03,1,0,1,0.00
2013-1-10,44.7,39.2,29.6,28.8,25.1,22.9,76,57,45,30.55,30.09,30,2,30,0.00
2013-1-11,37.4,32.0,24.8,34.6,27.5,21.5,95,83,68,30.55,30.23,1,0,1,0.13
2013-1-12,40.1,37.4,34.8,39.1,36.3,33.7,97,96,95,30.25,30.14,1,0,1,0.04
2013-1-13,49.9,44.7,39.0,48.5,43.6,38.1,97,96,93,30.17,30.01,17,1,17,0.01
2013-1-14,57.4,48.7,38.4,51.2,41.3,28.3,96,77,42,30.27,29.87,20,4,20,0.00
2013-1-15,38.9,35.1,30.9,29.6,26.4,24.2,83,71,58,30.34,30.23,10,0,10,0.00
2013-1-16,32.3,31.5,28.4,27.2,26.4,24.7,94,81,75,30.29,30.12,3,0,3,0.00
2013-1-17,39.3,33.8,28.0,32.1,25.7,15.1,91,73,55,30.29,29.96,1,0,3,0.34
2013-1-18,27.9,20.9,16.5,15.4,4.1,-2.9,62,48,32,30.48,30.07,1,0,1,0.00
2013-1-19,45.2,27.2,17.3,26.1,14.7,5.5,69,59,45,30.45,30.03,0,0,0,0.02
2013-1-20,18.0,17.6,17.3,6.9,6.4,5.8,61,61,60,30.43,30.42,0,0,0,0.00
2013-1-21,26.7,21.2,17.3,19.6,11.0,5.8,92,66,44,30.43,29.82,0,0,0,0.00
2013-1-22,21.6,17.9,10.3,19.0,6.6,-3.3,93,63,36,30.12,29.78,0,0,0,0.00
2013-1-23,14.3,8.9,4.8,3.3,-5.0,-9.1,76,53,39,30.19,30.10,11,0,11,0.00
2013-1-24,18.6,9.3,1.3,-4.6,-7.3,-9.1,64,47,30,30.28,30.12,21,1,21,0.00
2013-1-25,21.3,14.2,5.9,12.4,-3.8,-8.8,87,45,30,30.35,30.09,16,3,17,0.00
2013-1-26,22.5,14.6,6.9,12.8,3.5,-6.9,90,64,34,30.29,30.05,20,2,21,0.00
2013-1-27,29.2,19.1,10.8,5.4,2.8,0.1,69,50,31,30.51,30.29,20,3,20,0.00
2013-1-28,29.4,23.2,16.7,24.3,13.7,2.7,94,69,41,30.49,30.04,12,1,12,0.00
2013-1-29,32.4,28.6,24.0,31.4,27.1,22.5,96,94,92,30.22,30.04,4,0,4,0.14
2013-1-30,57.9,47.3,32.3,55.9,46.1,31.0,100,95,92,30.17,29.44,28,4,28,0.20
2013-1-31,59.7,46.1,29.4,57.9,36.8,-99.9,94,72,42,29.60,28.98,39,1,39,0.63
2013-2-1,30.9,26.3,20.3,20.5,10.4,4.4,73,51,36,30.12,29.60,27,6,27,0.00
2013-2-2,28.6,22.5,15.1,14.8,8.1,2.7,71,54,41,30.29,30.08,19,4,19,0.00
2013-2-3,26.2,22.7,17.4,21.9,19.1,14.6,93,86,69,30.09,29.76,12,0,12,0.00
2013-2-4,27.1,22.2,18.8,19.5,11.9,7.1,92,65,44,29.98,29.76,29,5,29,0.00
2013-2-5,26.4,23.0,19.7,21.2,15.2,9.1,92,72,61,30.06,29.96,11,1,11,0.00
2013-2-6,36.2,28.0,22.1,25.2,18.1,4.2,94,69,40,30.33,29.95,20,3,20,0.03
2013-2-7,29.8,23.1,13.6,11.2,6.0,3.0,77,49,33,30.55,30.32,11,1,11,0.00
2013-2-8,30.7,23.7,16.9,29.2,19.9,11.4,94,86,62,30.51,29.63,26,3,26,0.00
2013-2-9,23.1,18.5,13.5,20.3,14.5,5.0,94,84,67,30.25,29.61,27,6,27,0.00
2013-2-10,37.9,22.3,9.2,10.6,5.7,0.5,69,51,24,30.43,30.25,14,2,14,0.17
2013-2-11,44.0,31.9,13.9,42.7,25.8,-6.4,96,79,39,30.38,29.63,8,0,8,0.19
2013-2-12,41.2,36.6,13.9,39.3,27.9,-6.4,94,71,39,30.15,29.63,0,0,0,0.00
2013-2-13,40.5,30.6,13.9,26.0,20.2,-6.4,83,66,39,30.15,29.71,9,0,9,0.00
2013-2-14,42.9,33.3,26.5,25.0,22.5,20.0,83,66,43,30.01,29.73,11,1,11,0.00
2013-2-15,50.5,38.0,28.2,35.2,30.9,23.0,94,77,53,30.02,29.92,20,3,20,0.00
2013-2-16,36.2,32.9,28.4,32.0,27.6,18.3,100,81,60,29.97,29.73,11,1,11,0.04
2013-2-17,28.1,20.4,14.6,20.9,9.8,1.2,91,65,42,29.74,29.45,34,8,34,0.00
2013-2-18,28.4,20.4,12.2,3.7,1.5,-2.2,59,44,28,30.20,29.74,30,7,30,0.00
2013-2-19,46.9,34.2,19.4,40.5,24.3,2.6,95,68,45,30.21,29.61,20,2,20,0.26
2013-2-20,39.5,30.1,24.1,37.9,19.2,10.7,95,64,43,29.81,29.57,28,6,28,0.01
2013-2-21,32.1,26.1,22.2,16.6,14.2,11.0,72,61,47,30.24,29.80,25,5,25,0.00
2013-2-22,38.9,29.7,19.6,24.1,20.1,15.4,86,68,46,30.42,30.24,14,1,14,0.00
2013-2-23,36.6,32.4,27.2,31.1,28.1,22.4,95,84,76,30.35,29.92,12,1,12,0.01
2013-2-24,33.5,32.3,30.7,32.4,31.1,29.7,96,95,95,29.92,29.72,4,0,4,0.39
2013-2-25,37.4,32.5,25.7,33.6,30.4,24.5,96,92,80,30.27,29.92,1,0,1,0.43
2013-2-26,43.3,35.1,13.9,33.7,29.3,-6.4,95,80,39,30.35,30.15,1,0,1,0.21
2013-2-27,40.8,37.4,33.4,39.5,35.6,30.3,95,93,84,30.17,29.75,1,0,1,0.85
2013-2-28,43.5,36.1,32.1,37.9,34.0,30.8,96,92,79,29.67,29.56,3,0,3,0.00
2013-3-1,40.9,36.8,30.4,37.0,31.1,27.2,95,80,64,29.71,29.56,11,1,11,0.01
2013-3-2,40.9,37.3,32.1,37.0,29.7,25.9,86,74,63,29.70,29.57,12,1,12,0.00
2013-3-3,39.6,33.0,30.0,30.8,27.4,24.0,93,80,66,29.67,29.59,12,2,12,0.00
2013-3-4,40.9,33.1,26.3,37.0,24.6,19.5,92,71,57,29.78,29.57,23,6,23,0.00
2013-3-5,44.4,34.9,29.2,31.1,26.7,22.3,91,72,56,30.08,29.78,13,1,15,0.00
2013-3-6,37.5,34.6,32.3,34.2,32.0,29.5,95,90,73,30.12,30.06,24,2,24,0.15
2013-3-7,32.8,30.8,29.2,30.5,28.9,27.2,95,92,87,30.08,30.02,24,2,24,0.14
2013-3-8,40.9,31.3,28.6,37.0,29.4,24.5,96,93,69,30.18,29.57,15,2,15,0.02
2013-3-9,49.9,37.9,25.2,37.0,27.6,20.8,94,69,33,30.38,29.57,3,0,3,0.56
2013-3-10,45.4,34.1,21.4,32.4,28.2,19.9,95,80,58,30.44,30.32,2,0,2,0.01
2013-3-11,53.2,41.5,33.8,40.4,35.3,30.9,93,80,52,30.35,30.17,1,0,1,0.00
2013-3-12,54.6,48.1,40.8,50.8,46.2,39.0,95,93,84,30.17,29.74,1,0,1,0.41
2013-3-13,48.2,41.1,32.5,46.1,30.2,20.8,94,67,36,29.81,29.73,1,0,1,0.00
2013-3-14,34.6,29.2,21.2,24.6,15.1,6.8,69,55,43,29.88,29.74,23,2,23,0.00
2013-3-15,39.2,28.7,18.4,28.7,15.4,6.6,86,59,31,29.92,29.67,23,4,23,0.00
2013-3-16,38.7,32.2,26.9,28.3,17.2,10.2,86,56,34,29.90,29.71,13,1,13,0.00
2013-3-17,40.9,29.4,22.6,37.0,12.1,3.4,86,50,27,30.33,29.57,20,2,20,0.00
2013-3-18,40.9,30.9,15.0,37.0,14.3,1.2,89,55,23,30.49,29.57,11,1,11,0.00
2013-3-19,40.9,30.9,27.3,37.0,29.4,25.1,95,94,86,30.27,29.57,17,3,17,0.32
2013-3-20,36.8,29.8,24.7,26.8,21.0,17.7,95,71,49,29.84,29.73,23,4,23,0.30
2013-3-21,35.7,28.4,22.2,27.9,21.5,15.3,93,76,52,29.85,29.64,8,1,8,0.15
2013-3-22,40.9,32.0,24.3,37.0,20.2,15.3,86,62,43,29.78,29.57,25,4,25,0.04
2013-3-23,40.9,37.6,29.2,37.0,25.5,18.0,86,63,42,29.83,29.57,30,4,30,0.00
2013-3-24,45.6,38.3,30.7,37.0,24.6,19.7,86,59,42,29.86,29.57,16,3,19,0.00
2013-3-25,41.2,36.3,27.6,37.0,30.1,24.0,92,78,65,29.76,29.53,18,2,18,0.00
2013-3-26,46.6,38.8,33.8,29.7,25.8,20.2,79,61,38,29.82,29.56,14,2,14,0.00
2013-3-27,51.9,41.3,29.8,30.6,24.6,20.1,72,53,33,29.90,29.77,19,2,19,0.00
2013-3-28,48.5,41.5,34.6,34.8,32.4,28.8,93,71,48,30.05,29.90,14,1,14,0.01
2013-3-29,56.4,45.4,37.2,34.9,31.7,27.0,80,60,34,30.08,29.99,16,2,16,0.00
2013-3-30,55.2,45.1,34.7,32.6,24.8,15.7,75,49,22,30.13,30.02,17,2,17,0.00
2013-3-31,57.7,44.4,30.3,41.2,28.0,21.4,92,57,25,30.15,29.74,24,3,24,0.06
2013-4-1,60.4,44.9,33.0,47.9,35.9,12.9,99,73,40,29.82,29.53,29,5,29,0.16
2013-4-2,38.3,32.5,27.7,20.7,15.0,10.2,65,49,33,29.99,29.82,31,7,31,0.00
2013-4-3,42.7,34.8,28.6,19.2,14.5,10.0,62,44,28,30.19,29.97,30,8,30,0.00
2013-4-4,54.0,40.1,28.6,27.6,17.9,10.5,67,43,21,30.33,30.07,20,4,20,0.00
2013-4-5,59.4,44.6,35.9,31.8,26.9,19.0,78,54,22,30.08,29.66,22,5,22,0.00
2013-4-6,45.6,36.3,30.2,27.1,12.7,1.6,65,40,16,30.36,29.91,25,3,25,0.00
2013-4-7,54.5,41.5,26.2,40.6,27.7,13.5,84,60,31,30.36,30.02,29,5,29,0.00
2013-4-8,63.9,47.6,30.5,42.2,34.6,13.0,93,64,35,30.13,29.98,14,2,14,0.00
2013-4-9,31.0,30.7,30.5,16.7,14.9,13.0,56,51,47,30.13,30.11,4,3,13,0.00
2013-4-10,31.0,30.7,30.5,16.7,14.9,13.0,56,51,47,30.13,30.11,4,3,13,0.00
2013-4-11,31.0,30.7,30.5,16.7,14.9,13.0,56,51,47,30.13,30.11,4,3,13,0.00
2013-4-12,36.8,31.3,30.5,35.5,16.7,13.0,95,55,46,30.13,29.81,8,3,13,0.66
2013-4-13,51.4,42.7,34.3,39.2,35.7,32.8,95,78,53,29.96,29.79,5,0,8,0.06
2013-4-14,50.7,43.4,37.0,39.6,32.3,25.5,93,67,42,30.24,29.94,16,1,16,0.01
2013-4-15,58.6,44.8,31.7,36.6,31.8,27.2,90,63,38,30.41,30.24,12,1,12,0.00
2013-4-16,64.8,51.0,36.5,50.7,42.2,34.1,92,74,47,30.42,30.08,25,5,25,0.00
2013-4-17,65.6,55.4,36.4,52.4,38.5,29.1,95,57,27,30.35,29.85,20,3,20,0.01
2013-4-18,62.2,49.9,36.6,45.3,34.0,29.4,86,58,32,30.44,30.16,20,3,20,0.00
2013-4-19,72.9,61.8,50.9,62.5,57.6,45.3,95,87,65,30.16,29.67,31,6,31,0.00
2013-4-20,63.8,52.1,41.4,61.4,40.1,24.2,94,67,36,30.25,29.61,15,5,25,0.62
2013-4-21,52.3,41.4,32.8,26.0,22.0,18.7,64,47,27,30.64,30.25,24,3,24,0.00
2013-4-26,60.9,48.7,36.1,38.8,34.8,28.7,84,60,41,30.44,30.28,5,2,15,0.00
2013-4-27,63.4,49.8,34.7,40.5,36.0,32.8,94,64,32,30.44,30.30,3,1,11,0.00
2013-4-28,69.7,53.9,36.8,41.7,34.8,26.7,94,54,28,30.36,30.22,5,2,16,0.00
2013-4-29,67.3,56.0,44.3,46.9,37.3,25.6,90,54,30,30.29,30.20,5,2,16,0.00
2013-4-30,69.3,57.2,43.4,36.8,28.0,16.7,71,36,17,30.36,30.27,4,1,13,0.00
2013-5-1,69.4,55.3,36.5,41.4,34.9,30.3,82,50,27,30.48,30.36,4,1,12,0.00
2013-5-2,77.7,57.7,43.3,45.5,41.2,36.9,89,59,26,30.50,30.33,6,2,18,0.00
2013-5-3,60.9,50.0,39.9,45.3,40.7,36.5,90,72,51,30.53,30.41,12,2,16,0.00
2013-5-4,62.4,49.7,37.5,46.6,38.4,27.2,94,68,33,30.41,30.31,13,2,13,0.00
2013-5-5,62.6,47.9,33.4,43.3,38.7,31.9,95,73,46,30.35,30.25,10,1,10,0.00
2013-5-6,73.0,55.6,36.8,51.1,43.9,35.0,95,69,34,30.30,30.14,11,1,11,0.00
2013-5-7,75.5,62.7,46.0,58.6,51.9,43.5,92,70,46,30.19,30.09,12,1,12,0.00
2013-5-8,70.0,61.3,52.7,63.9,57.7,50.6,95,88,71,30.20,30.05,15,1,15,0.11
2013-5-9,66.4,59.7,54.8,61.4,57.6,53.0,96,93,75,30.05,29.89,6,0,6,0.49
2013-5-10,78.2,65.7,52.4,60.1,54.7,49.7,96,71,39,29.97,29.89,12,1,12,0.00
2013-5-11,69.2,62.5,57.3,62.4,58.4,54.3,94,87,73,29.92,29.70,25,3,25,0.07
2013-5-12,69.3,59.4,48.3,59.2,50.3,31.9,94,74,45,29.84,29.57,23,3,23,0.13
2013-5-13,56.6,48.4,40.3,34.4,31.0,27.4,75,52,36,30.05,29.84,21,3,21,0.00
2013-5-14,57.4,48.0,38.0,36.1,32.3,28.0,82,56,36,30.08,30.00,18,2,18,0.00
2013-5-15,62.3,51.3,37.4,52.4,40.8,31.8,93,70,34,30.08,29.70,19,2,19,0.04
2013-5-16,78.9,67.1,52.9,51.8,42.9,34.9,93,46,22,29.81,29.65,25,4,25,0.00
2013-5-17,68.2,58.3,48.1,45.0,42.1,35.0,85,57,35,30.23,29.81,15,1,17,0.00
2013-5-18,71.1,59.2,44.9,50.5,44.3,38.0,93,62,32,30.32,30.23,16,2,16,0.00
2013-5-19,71.0,57.8,46.9,55.0,50.3,44.4,94,78,48,30.36,30.22,15,2,15,0.09
2013-5-20,80.2,66.9,53.6,66.8,58.2,42.1,95,75,59,30.45,29.92,17,2,17,0.02
2013-5-21,87.8,69.0,53.6,70.2,62.4,42.1,95,81,50,30.45,29.83,11,1,11,0.18
2013-5-22,75.6,60.0,49.4,69.2,57.0,48.0,96,90,78,30.03,29.87,9,1,15,0.11
2013-5-23,73.1,64.7,55.4,68.7,62.2,53.6,97,92,84,29.94,29.81,21,2,21,0.36
2013-5-24,71.0,61.9,47.8,66.2,59.2,46.4,95,91,78,29.84,29.66,15,1,15,0.44
2013-5-25,49.9,45.7,39.8,48.3,44.2,37.9,96,95,93,29.84,29.74,18,2,18,0.43
2013-5-26,56.5,47.5,38.1,42.2,39.3,36.2,94,75,51,30.14,29.77,29,5,29,0.02
2013-5-27,69.6,56.8,40.2,46.1,40.1,33.9,93,58,28,30.19,30.09,23,3,23,0.00
2013-5-28,74.5,59.9,42.9,53.9,45.8,40.0,94,64,31,30.26,30.16,13,1,13,0.00
2013-5-29,73.5,63.0,56.9,67.9,60.5,54.3,95,92,81,30.20,29.99,13,0,13,1.08
2013-5-30,85.9,74.1,62.5,71.7,66.5,60.7,95,79,55,30.10,30.01,15,1,15,0.00
2013-5-31,91.8,79.7,61.8,72.3,66.5,59.8,93,67,40,30.10,29.94,15,2,15,0.00
2013-6-1,89.7,78.9,67.9,70.1,66.3,62.2,84,67,46,29.98,29.86,16,3,19,0.00
2013-6-2,87.0,75.3,61.8,71.4,66.7,59.8,93,76,49,29.94,29.73,24,4,24,0.01
2013-6-3,76.5,68.0,60.4,67.6,62.3,44.5,94,83,55,29.86,29.76,13,1,13,0.54
2013-6-4,69.3,60.7,51.0,51.0,45.0,39.1,81,57,43,30.11,29.84,15,2,16,0.00
2013-6-5,73.1,61.4,47.9,54.1,48.3,43.6,93,65,38,30.21,30.10,12,1,12,0.00
2013-6-6,72.2,61.9,51.2,55.2,50.9,46.9,92,69,44,30.21,30.11,13,0,13,0.02
2013-6-7,58.2,55.0,52.3,56.8,53.5,51.2,96,95,92,30.11,29.83,11,0,11,2.54
2013-6-8,76.0,61.9,51.8,65.0,57.0,50.7,97,85,65,30.03,29.65,16,2,16,0.89
2013-6-9,77.5,67.4,57.1,59.2,56.7,54.3,92,71,48,30.18,30.03,17,2,17,0.00
2013-6-10,69.2,61.5,55.4,62.9,58.2,53.1,95,89,70,30.22,30.02,13,0,13,0.88
2013-6-11,62.4,57.9,55.7,59.7,56.4,54.6,96,95,90,30.02,29.58,11,0,11,1.22
2013-6-12,68.9,62.1,56.8,57.5,54.8,52.0,96,78,61,29.83,29.58,26,3,26,0.00
2013-6-13,61.7,55.2,50.8,58.5,53.1,49.1,96,93,86,29.83,29.68,11,0,11,1.09
2013-6-14,72.2,58.9,50.6,59.1,53.4,49.5,96,83,54,29.80,29.65,13,1,13,1.07
2013-6-15,76.2,66.4,54.4,54.8,49.6,44.5,85,58,34,29.96,29.80,15,2,15,0.00
2013-6-16,74.0,66.8,56.5,63.6,55.1,45.6,81,66,49,29.96,29.72,13,2,13,0.00
2013-6-17,83.9,69.6,59.8,65.8,60.5,57.8,95,76,46,29.92,29.77,23,2,23,0.17
2013-6-18,76.7,62.8,58.1,67.6,60.1,56.9,96,92,68,29.95,29.86,15,0,15,1.44
2013-6-19,72.8,62.9,54.7,57.8,53.9,47.6,99,75,45,30.17,29.92,7,0,7,0.13
2013-6-20,76.4,64.9,49.1,57.7,52.6,46.2,95,68,37,30.29,30.17,13,1,13,0.00
2013-6-21,81.9,70.3,57.6,66.6,60.2,53.8,89,72,50,30.27,30.19,14,3,14,0.00
2013-6-22,82.5,71.8,60.7,66.1,60.3,55.7,86,68,47,30.24,30.11,14,2,14,0.00
2013-6-23,87.5,75.4,63.1,73.5,65.9,56.2,85,73,59,30.17,30.00,20,3,20,0.00
2013-6-24,90.3,78.5,67.9,74.1,70.2,65.7,94,77,54,30.03,29.88,19,2,19,0.07
2013-6-25,89.6,76.9,66.0,74.1,68.5,64.2,95,77,52,29.94,29.73,17,2,17,0.02
2013-6-26,84.0,75.0,61.8,72.4,68.9,59.8,94,82,60,29.94,29.74,13,1,13,0.00
2013-6-27,71.0,66.3,63.6,68.0,64.5,62.1,96,94,89,29.86,29.75,7,0,7,0.33
2013-6-28,81.3,70.2,61.8,73.5,67.1,59.8,98,91,72,29.94,29.49,19,1,19,0.44
2013-6-29,82.3,72.5,61.8,71.4,67.9,59.8,95,86,64,29.94,29.51,19,2,19,0.01
2013-6-30,84.3,74.5,61.8,74.1,69.4,59.8,95,85,63,29.94,29.73,15,2,15,0.00
2013-7-1,80.9,68.8,61.8,76.1,66.2,59.8,95,92,79,30.07,29.86,15,1,15,0.08
2013-7-2,81.5,70.7,61.8,74.5,67.6,59.8,94,90,77,30.18,29.94,11,1,11,0.00
2013-7-3,86.8,75.1,61.8,75.1,69.8,59.8,95,84,65,30.21,29.94,16,3,16,0.00
2013-7-4,90.0,80.2,72.0,76.4,73.5,70.2,95,81,61,30.21,30.09,16,3,16,0.00
2013-7-5,92.0,82.2,61.8,76.6,73.4,59.8,93,76,57,30.16,29.94,15,3,15,0.00
2013-7-6,89.6,72.6,61.8,75.4,65.8,59.8,93,81,59,30.05,29.94,14,2,14,0.00
2013-7-7,91.5,70.2,61.8,79.0,64.7,59.8,95,84,58,30.02,29.90,10,1,10,0.07
2013-7-8,87.9,77.3,68.5,75.8,71.0,66.7,96,82,56,30.05,29.91,8,1,14,0.01
2013-7-9,73.4,69.2,65.2,70.3,66.9,63.7,96,92,89,30.10,30.03,5,0,5,0.01
2013-7-10,86.6,82.6,73.7,76.4,72.1,70.5,95,72,59,29.93,29.79,14,2,14,0.15
2013-7-11,81.0,74.7,69.3,75.6,71.7,67.4,96,91,75,29.93,29.78,12,1,12,0.22
2013-7-12,74.5,69.3,65.0,67.4,63.2,58.7,94,81,71,30.20,29.93,12,0,12,0.00
2013-7-13,74.5,68.7,64.0,72.0,66.5,60.2,96,93,84,30.31,30.20,6,0,6,0.07
2013-7-14,87.5,76.7,70.1,75.4,71.7,68.8,97,86,60,30.31,30.23,11,1,11,0.01
2013-7-15,89.0,79.9,71.8,77.1,73.2,68.9,94,81,54,30.21,30.09,8,0,8,0.00
2013-7-16,91.7,80.5,70.0,73.0,69.9,66.4,90,72,48,30.16,30.09,11,0,11,0.00
2013-7-17,93.0,81.6,70.6,75.9,71.8,67.7,95,75,45,30.18,30.00,13,1,13,0.00
2013-7-18,93.5,83.9,76.6,77.7,74.1,70.5,91,74,48,30.00,29.91,10,2,14,0.00
2013-7-19,94.7,84.6,74.0,78.9,75.3,72.2,95,76,51,29.94,29.71,27,3,27,0.00
2013-7-20,91.5,81.9,72.9,78.1,74.4,65.0,93,79,54,29.81,29.64,16,2,17,0.27
2013-7-21,83.8,75.2,67.5,71.0,66.6,62.9,92,76,53,29.98,29.81,7,0,7,0.00
2013-7-22,83.0,72.4,65.1,72.1,67.8,63.6,96,86,62,30.01,29.88,10,0,10,0.00
2013-7-23,82.8,72.3,68.6,77.8,70.6,67.0,97,94,81,29.88,29.53,16,0,16,0.95
2013-7-24,82.2,72.8,66.1,72.6,63.3,-99.9,97,78,57,29.95,29.58,15,-23,15,0.02
2013-7-25,66.0,59.0,57.7,57.7,54.5,48.9,96,86,70,30.11,29.96,12,0,12,0.02
2013-7-26,70.4,63.0,58.4,68.3,61.4,57.3,97,95,88,30.07,29.96,10,0,10,0.02
2013-7-27,81.7,70.2,61.3,70.0,64.0,59.6,96,82,57,30.07,29.99,10,1,10,0.02
2013-7-28,83.5,71.6,63.3,72.8,67.2,61.8,96,87,61,30.02,29.94,8,0,8,0.02
2013-7-29,82.1,72.3,65.4,74.6,68.5,63.6,96,88,69,30.05,29.95,11,0,11,0.00
2013-7-30,79.8,70.2,61.2,63.6,59.8,56.2,95,71,48,30.11,30.04,9,1,14,0.08
2013-7-31,80.0,70.4,60.6,66.4,60.9,56.8,91,73,47,30.16,30.04,7,0,7,0.35
2013-8-1,78.7,68.5,61.1,68.1,63.9,59.6,96,86,66,30.06,29.88,11,1,11,0.03
2013-8-2,80.8,70.8,63.6,68.7,63.8,59.9,97,81,52,29.90,29.80,16,1,16,0.38
2013-8-3,76.5,69.0,62.9,65.7,62.7,60.9,95,82,61,29.88,29.79,14,2,14,0.00
2013-8-4,78.0,67.5,58.7,61.1,57.4,54.5,91,72,49,29.92,29.78,16,1,16,0.00
2013-8-5,73.5,63.6,55.1,54.9,50.3,42.5,87,65,33,30.07,29.91,17,2,18,0.00
2013-8-6,77.3,64.0,49.4,58.8,53.1,47.1,94,71,43,30.17,30.08,7,0,7,0.00
2013-8-7,77.9,66.8,56.2,61.5,57.3,52.1,96,74,42,30.20,30.11,13,0,13,0.00
2013-8-8,78.8,70.6,63.9,71.7,66.9,58.7,96,88,77,30.14,30.01,13,1,13,0.06
2013-8-9,74.9,72.0,69.9,73.7,70.5,68.7,97,95,91,30.03,29.76,18,1,19,1.42
2013-8-10,80.4,72.3,64.3,70.1,61.3,51.8,96,71,46,30.02,29.80,17,2,17,0.00
2013-8-11,76.8,66.2,53.3,62.0,55.7,50.2,94,71,47,30.11,30.01,13,1,14,0.00
2013-8-12,80.5,69.9,58.9,64.7,59.9,55.4,95,73,46,30.05,29.92,12,1,12,0.00
2013-8-13,73.1,67.5,63.5,68.9,64.5,60.7,95,90,77,29.93,29.69,8,0,8,0.02
2013-8-14,71.3,65.2,58.9,63.6,54.6,49.2,96,70,54,30.00,29.68,21,4,21,0.00
2013-8-15,74.5,64.2,54.6,56.3,53.2,49.8,89,69,45,30.13,30.00,14,2,14,0.00
2013-8-16,77.8,66.6,55.1,59.1,55.3,51.6,88,69,44,30.21,30.13,12,1,12,0.00
2013-8-17,78.4,67.4,55.8,64.4,59.4,53.9,95,77,53,30.29,30.21,9,0,9,0.00
2013-8-18,77.3,67.2,59.3,66.8,61.1,57.1,95,82,54,30.29,30.10,7,0,7,0.00
2013-8-19,79.3,70.2,61.0,64.5,61.0,56.1,92,74,48,30.10,29.96,12,2,12,0.00
2013-8-20,83.6,73.6,62.3,67.2,62.6,59.2,92,70,46,30.10,29.99,10,1,10,0.00
2013-8-21,85.5,74.5,63.5,68.4,64.1,60.0,92,72,48,30.16,30.03,11,1,11,0.00
2013-8-22,83.7,73.5,64.8,73.3,67.9,62.5,94,83,66,30.05,29.83,14,2,14,0.00
2013-8-23,78.0,70.6,59.8,69.0,60.9,52.9,94,73,49,30.14,29.83,11,0,11,0.00
2013-8-24,75.1,63.4,51.2,54.3,51.1,44.6,94,68,35,30.36,30.14,9,0,9,0.00
2013-8-25,81.2,67.6,53.2,59.5,54.3,49.4,95,66,34,30.39,30.20,13,1,13,0.00
2013-8-26,77.9,70.3,63.5,67.6,62.5,57.4,91,77,65,30.21,29.89,16,2,16,0.01
2013-8-27,81.0,71.9,66.1,72.5,68.2,64.2,97,89,66,29.90,29.83,7,0,7,0.21
2013-8-28,84.5,72.4,62.7,70.9,65.8,61.5,97,81,56,29.97,29.84,8,0,9,0.00
2013-8-29,66.7,63.9,60.2,64.9,61.9,57.7,96,93,90,30.09,29.95,11,0,11,0.00
2013-8-30,80.6,69.1,60.0,68.9,64.1,58.1,95,85,64,30.05,29.84,12,1,12,0.00
2013-8-31,78.2,73.1,68.4,73.5,70.6,66.5,96,92,84,29.84,29.79,13,2,13,0.04
2013-9-1,75.6,71.3,67.8,74.4,70.2,66.6,97,96,93,29.89,29.80,16,0,16,1.01
2013-9-2,78.2,73.0,70.5,75.9,71.5,69.6,97,95,87,29.87,29.70,12,0,12,0.07
2013-9-3,77.9,71.7,66.5,72.0,68.4,63.2,97,90,72,29.79,29.70,15,1,15,0.01
2013-9-4,77.6,68.7,59.3,61.5,58.5,55.3,92,71,51,29.94,29.83,14,2,15,0.00
2013-9-5,68.5,62.3,49.4,61.9,54.8,44.2,93,78,44,30.17,29.88,9,1,9,0.03
2013-9-6,67.1,55.0,42.8,50.4,44.5,38.6,96,71,40,30.29,30.12,9,0,9,0.00
2013-9-7,77.4,63.1,50.1,59.2,51.0,44.1,84,67,38,30.12,29.88,14,2,14,0.00
2013-9-8,73.9,63.3,48.7,62.6,53.5,41.8,91,72,42,30.11,29.76,17,2,17,0.00
2013-9-9,67.3,55.7,42.3,51.9,45.9,40.4,95,72,44,30.26,30.11,11,1,11,0.00
2013-9-10,74.3,65.4,55.3,70.0,62.7,50.8,96,91,85,30.18,30.04,20,2,20,0.05
2013-9-11,93.0,79.5,68.8,77.6,72.2,67.0,97,80,52,30.08,29.94,14,2,14,0.00
2013-9-12,84.6,75.3,66.6,74.8,70.3,65.3,96,85,68,29.97,29.68,23,2,23,1.35
2013-9-13,76.7,67.2,59.0,69.1,63.9,54.8,97,90,67,29.78,29.57,14,1,14,0.14
2013-9-14,66.0,58.7,51.8,55.4,52.7,49.9,94,81,65,30.08,29.78,12,1,12,0.00
2013-9-15,69.1,57.7,47.9,54.6,49.9,46.3,96,77,45,30.19,30.07,12,1,12,0.00
2013-9-16,66.0,57.5,46.6,56.9,50.7,37.6,95,78,65,30.27,30.04,11,1,11,0.03
2013-9-17,60.3,49.0,37.4,47.3,40.4,35.3,95,74,48,30.44,30.27,12,0,12,0.00
2013-9-18,71.0,56.6,43.3,51.6,45.9,41.4,95,71,38,30.36,30.17,11,1,11,0.00
2013-9-19,77.7,62.6,49.2,59.1,52.1,46.0,92,71,42,30.17,30.05,9,1,9,0.00
2013-9-20,78.5,63.2,49.8,59.9,54.4,48.4,96,76,43,30.11,30.00,6,0,6,0.00
2013-9-21,72.4,64.0,54.5,65.6,60.2,53.3,97,88,67,30.04,29.73,17,1,17,0.00
2013-9-22,68.8,62.7,50.7,67.0,56.2,45.1,96,80,56,29.85,29.60,17,2,17,0.31
2013-9-23,61.7,51.6,44.2,46.2,42.7,39.3,90,73,53,30.04,29.85,9,2,15,0.00
2013-9-24,65.5,52.7,42.7,47.2,42.7,38.8,88,71,43,30.03,29.84,13,2,14,0.00
2013-9-25,67.7,56.0,44.6,60.2,49.0,42.7,94,78,58,30.00,29.88,10,0,10,0.00
2013-9-26,64.4,56.0,50.9,52.6,49.9,47.1,95,81,57,30.15,30.00,9,0,9,0.00
2013-9-27,63.8,56.3,49.1,55.5,52.1,48.0,96,86,70,30.28,30.14,9,0,9,0.00
2013-9-28,70.8,56.9,47.2,58.0,51.5,46.4,98,84,58,30.35,30.27,9,0,9,0.00
2013-9-29,67.4,53.2,44.1,54.9,47.0,42.1,97,82,45,30.29,30.14,6,0,6,0.00
2013-9-30,66.5,53.5,44.9,53.9,48.7,43.7,100,86,56,30.15,29.99,8,0,8,0.00
2013-10-1,76.6,61.5,46.7,59.1,53.0,45.6,100,77,44,29.99,29.86,13,0,13,0.01
2013-10-2,77.8,65.8,57.2,62.6,57.8,54.0,92,77,56,29.99,29.85,19,2,19,0.00
2013-10-3,75.3,63.3,53.1,55.8,51.6,42.8,93,69,33,30.12,29.99,9,1,9,0.00
2013-10-4,61.9,57.0,51.9,59.0,53.7,47.4,97,89,60,30.12,30.05,8,0,8,0.30
2013-10-5,67.3,60.9,56.8,62.0,58.3,56.0,97,91,78,30.14,30.07,3,0,3,0.03
2013-10-6,59.6,55.8,53.8,57.9,55.0,53.0,100,97,94,30.24,30.12,8,0,8,0.49
2013-10-7,74.7,63.4,55.0,70.2,61.1,53.2,98,93,80,30.14,29.82,20,2,23,0.05
2013-10-8,64.3,55.1,43.1,53.2,45.9,41.1,93,73,47,30.40,29.92,15,1,15,0.00
2013-10-9,61.4,48.4,38.8,48.6,43.1,37.8,97,84,56,30.49,30.39,4,0,10,0.00
2013-10-10,61.1,50.1,40.5,54.0,47.3,39.5,100,91,74,30.39,30.20,8,0,8,0.00
2013-10-11,69.4,55.7,47.5,57.7,50.1,46.0,100,83,53,30.20,30.10,9,0,10,0.00
2013-10-12,58.6,52.0,44.7,56.1,50.3,43.6,97,94,87,30.41,30.17,15,0,15,0.01
2013-10-13,57.7,50.4,40.4,50.5,46.9,39.3,97,88,72,30.46,30.39,12,0,12,0.00
2013-10-14,63.6,48.8,34.8,49.3,42.5,34.0,98,81,45,30.43,30.27,6,0,6,0.00
2013-10-15,65.3,55.4,46.7,54.7,50.0,45.3,96,83,60,30.29,30.19,6,0,6,0.00
2013-10-16,59.0,53.0,46.9,54.0,50.6,45.5,97,92,78,30.19,29.94,6,0,6,0.00
2013-10-17,71.9,60.3,49.9,61.3,56.5,48.8,97,88,64,29.94,29.73,14,1,14,0.02
2013-10-18,64.8,58.9,46.2,60.5,50.7,41.6,96,76,52,29.93,29.62,23,3,23,0.01
2013-10-19,65.2,53.3,41.3,48.2,43.0,39.0,94,70,43,29.99,29.76,12,1,12,0.00
2013-10-20,60.1,52.5,44.7,50.4,41.2,32.7,96,68,36,30.02,29.71,22,3,22,0.04
2013-10-21,59.0,57.8,49.8,52.1,50.5,41.0,81,77,59,30.06,30.01,11,0,11,0.00
2013-10-22,64.5,53.6,44.2,52.7,47.2,40.3,100,80,58,30.01,29.73,17,2,17,0.00
2013-10-23,59.0,55.6,43.8,52.1,48.1,35.0,78,76,65,30.06,29.63,11,0,11,0.00
2013-10-24,51.8,43.5,35.3,35.6,30.7,23.8,90,63,37,29.92,29.68,18,3,19,0.00
2013-10-25,49.2,40.3,33.8,34.4,29.9,27.6,89,67,45,30.19,29.92,17,2,17,0.00
2013-10-26,53.4,41.1,32.8,34.3,30.2,25.9,92,68,35,30.19,29.98,24,3,27,0.00
2013-10-27,52.8,44.8,36.6,37.9,34.2,29.8,89,68,45,30.11,29.83,6,2,19,0.00
2013-10-28,56.7,43.9,31.6,36.7,32.2,24.9,85,65,45,30.40,30.11,7,2,22,0.00
2013-10-29,48.5,35.5,27.5,29.7,24.3,20.2,91,67,33,30.48,30.38,2,0,11,0.00
2013-10-30,53.6,41.4,31.5,41.3,35.7,28.4,96,81,63,30.38,30.23,4,1,13,0.00
2013-10-31,60.8,50.5,35.5,58.4,48.9,34.5,98,94,87,30.27,29.82,6,2,20,0.21
2013-11-1,67.7,62.6,56.9,62.7,57.9,53.5,96,85,68,29.81,29.47,31,6,31,0.15
2013-11-2,65.8,54.3,43.8,53.8,44.6,40.6,95,73,40,29.75,29.60,11,1,11,0.00
2013-11-3,49.1,43.1,38.5,46.0,38.3,32.9,89,83,77,30.09,29.75,17,1,17,0.00
2013-11-4,41.9,31.3,24.1,23.2,18.5,16.1,92,61,36,30.75,30.50,3,0,13,0.00
2013-11-5,50.5,38.2,24.0,36.4,28.9,20.8,92,71,47,30.75,30.52,3,1,10,0.00
2013-11-6,59.6,50.5,40.3,50.0,43.2,36.1,92,77,56,30.52,30.02,6,3,19,0.00
2013-11-7,63.4,51.8,37.6,57.4,47.4,27.3,94,85,66,30.02,29.71,7,4,23,0.26
2013-11-8,46.0,38.6,30.4,34.9,27.6,22.3,81,65,49,30.14,29.87,23,4,23,0.00
2013-11-9,43.1,36.6,27.8,29.8,25.4,22.0,80,64,45,30.26,30.06,17,2,17,0.00
2013-11-10,54.1,44.5,39.1,40.8,36.1,29.8,95,73,55,30.06,29.78,25,3,25,0.03
2013-11-11,49.9,43.7,36.9,33.2,28.8,26.0,68,56,41,30.13,29.90,27,4,27,0.00
2013-11-12,48.6,34.5,25.3,38.3,25.6,15.5,92,70,52,30.22,29.91,25,3,25,0.08
2013-11-13,34.6,27.7,22.1,17.6,15.0,11.0,75,60,40,30.33,30.20,15,2,15,0.00
2013-11-14,50.1,38.9,27.7,25.4,20.8,16.8,67,49,36,30.20,30.08,19,4,19,0.00
2013-11-15,59.4,46.5,35.9,33.3,22.6,14.2,66,41,19,30.22,30.13,18,2,18,0.00
2013-11-16,59.6,46.6,36.7,36.1,29.3,25.1,90,53,28,30.33,30.20,10,1,10,0.00
2013-11-17,53.8,43.2,34.2,49.1,40.5,32.7,97,91,74,30.32,29.86,3,0,3,0.06
2013-11-18,63.7,56.4,45.2,60.5,45.9,31.7,98,70,44,29.86,29.55,20,4,23,0.30
2013-11-19,47.0,38.4,29.5,32.5,23.1,17.9,62,54,44,30.31,29.67,25,5,25,0.00
2013-11-20,40.9,30.3,22.9,18.6,15.6,11.7,77,56,30,30.66,30.31,13,1,13,0.00
2013-11-21,47.2,33.9,21.2,34.3,22.0,14.9,79,63,36,30.67,30.41,15,1,15,0.00
2013-11-22,45.8,44.2,41.3,44.7,42.0,34.3,96,92,76,30.40,30.04,12,0,12,0.09
2013-11-23,45.8,45.8,45.8,44.7,44.7,44.7,96,96,96,30.04,30.04,0,0,0,0.00
2013-11-24,45.8,45.8,45.8,44.7,44.7,44.7,96,96,96,30.04,30.04,0,0,0,0.00
2013-11-25,45.8,45.8,45.8,44.7,44.7,44.7,96,96,96,30.04,30.04,0,0,0,0.00
2013-11-26,45.8,45.8,45.8,44.7,44.7,44.7,96,96,96,30.04,30.04,0,0,0,0.00
2013-11-27,48.5,44.2,37.7,47.0,42.6,32.4,96,94,63,30.04,29.26,20,2,20,0.78
2013-11-28,37.7,34.3,23.0,35.0,29.2,9.2,90,82,48,30.47,29.38,10,5,11,0.00
2013-11-29,33.1,25.6,17.3,16.1,12.7,6.0,81,58,43,30.78,30.47,14,1,14,0.00
2013-11-30,17.3,15.2,15.2,8.5,7.8,7.3,73,72,65,30.78,30.77,0,0,0,0.00
2013-12-1,34.6,16.7,15.2,33.8,9.8,7.8,97,74,72,30.78,30.04,3,0,3,0.06
2013-12-2,36.1,35.6,34.5,35.2,34.8,33.7,97,97,97,30.04,30.00,5,0,5,0.00
2013-12-3,36.0,36.0,36.0,35.2,35.2,35.2,97,97,97,30.02,30.02,0,0,0,0.00
2013-12-4,36.0,36.0,36.0,35.2,35.2,35.2,97,97,97,30.02,30.02,0,0,0,0.00
2013-12-5,37.4,36.5,33.2,36.4,35.2,30.8,97,95,88,30.23,30.02,3,0,3,0.02
2013-12-6,37.4,37.4,37.4,36.4,36.4,36.4,96,96,96,30.13,30.13,0,0,0,0.00
2013-12-7,37.4,37.4,37.4,36.4,36.4,36.4,96,96,96,30.13,30.13,0,0,0,0.00
2013-12-8,37.4,32.7,27.4,36.4,26.7,15.6,96,79,57,30.60,30.13,6,0,6,0.00
2013-12-9,32.6,29.8,24.5,31.6,28.0,17.7,97,93,68,30.52,29.95,7,0,7,0.07
2013-12-10,32.4,31.3,23.0,31.6,29.7,16.7,97,94,68,30.03,29.93,17,0,17,0.00
2013-12-11,28.4,23.7,19.5,21.8,18.2,15.5,88,79,69,30.25,30.03,19,4,19,0.00
2013-12-12,23.4,19.0,11.5,17.7,9.0,2.4,86,66,43,30.31,30.10,18,2,18,0.00
2013-12-13,26.1,22.2,14.3,13.8,11.4,6.8,76,63,58,30.10,30.05,21,4,21,0.00
2013-12-14,26.1,19.2,11.4,13.4,8.9,-2.2,74,64,49,30.63,30.08,8,3,8,0.00
2013-12-15,14.5,14.5,14.5,7.8,7.8,7.8,74,74,74,30.55,30.55,2,2,0,0.00
2013-12-16,25.5,17.4,11.9,12.3,8.7,6.8,81,69,53,30.55,30.00,20,3,20,0.00
2013-12-17,16.6,10.0,0.5,14.9,7.1,-2.4,94,87,81,30.32,30.00,8,0,8,0.00
2013-12-18,31.7,24.1,14.9,22.9,19.4,12.8,100,82,65,30.12,29.92,19,2,19,0.02
2013-12-19,41.7,32.1,23.8,27.5,24.0,19.7,85,72,53,30.15,29.99,23,3,23,0.20
2013-12-20,51.9,41.0,30.7,36.3,31.9,26.5,92,71,52,30.14,29.93,19,3,19,0.26
2013-12-21,55.9,48.4,41.2,48.1,42.9,34.1,91,81,70,29.98,29.88,19,5,19,0.00
2013-12-22,63.7,47.7,34.4,60.2,45.8,33.6,97,93,71,30.04,29.78,17,2,17,0.00
2013-12-23,38.8,33.8,31.7,38.3,33.0,31.0,98,97,96,30.11,29.99,10,0,10,0.28
2013-12-24,37.4,31.2,24.7,36.4,23.0,12.8,96,72,52,30.23,30.07,16,2,16,0.00
2013-12-25,24.7,18.2,13.9,12.8,5.6,1.9,72,58,44,30.57,30.23,21,2,21,0.00
2013-12-26,29.9,23.4,14.9,27.7,19.1,7.0,94,83,70,30.53,30.13,13,1,13,0.00
2013-12-27,32.2,27.2,22.8,23.1,20.2,17.8,92,75,61,30.32,30.23,14,2,14,0.01
2013-12-28,46.0,33.3,22.8,28.9,25.2,19.5,91,73,49,30.25,30.03,23,3,23,0.01
2013-12-29,42.5,37.1,33.0,37.0,32.2,26.9,96,83,68,30.06,29.44,16,2,16,0.90
2013-12-30,39.7,31.1,17.3,35.0,22.8,9.9,96,73,43,30.18,29.56,23,3,23,0.00
2013-12-31,25.0,18.3,12.0,15.5,9.1,0.9,81,67,50,30.23,30.05,19,1,19,0.00
2014-1-1,26.4,20.2,14.1,14.2,8.8,5.2,79,62,46,30.42,30.23,20,2,20,0.00
2014-1-2,19.7,11.5,0.8,15.8,8.4,-2.7,91,87,77,30.39,29.89,20,2,20,0.00